createdAt,value
2022-08-19T00:02:01.873Z,10.13
2022-08-19T00:04:33.558Z,11.45
2022-08-19T00:07:00.892Z,11.23
2022-08-19T00:09:28.122Z,9.93
2022-08-19T00:11:56.598Z,8.40
2022-08-19T00:14:25.595Z,8.23
2022-08-19T00:16:55.387Z,7.85
2022-08-19T00:19:23.855Z,7.80
2022-08-19T00:21:51.138Z,7.47
2022-08-19T00:24:17.920Z,6.93
2022-08-19T00:26:46.307Z,6.37
2022-08-19T00:29:15.495Z,7.57
2022-08-19T00:31:44.014Z,6.60
2022-08-19T00:34:12.950Z,4.40
2022-08-19T00:36:41.009Z,4.20
2022-08-19T00:39:08.513Z,6.17
2022-08-19T00:41:35.266Z,6.75
2022-08-19T00:44:10.357Z,7.63
2022-08-19T00:46:39.383Z,7.55
2022-08-19T00:49:23.503Z,7.25
2022-08-19T00:51:56.689Z,8.23
2022-08-19T00:54:28.669Z,8.20
2022-08-19T00:57:00.391Z,8.65
2022-08-19T00:59:58.766Z,8.15
2022-08-19T01:02:18.364Z,7.75
2022-08-19T01:04:45.461Z,6.53
2022-08-19T01:07:15.229Z,6.72
2022-08-19T01:09:46.780Z,6.82
2022-08-19T01:12:14.158Z,6.65
2022-08-19T01:14:41.284Z,7.00
2022-08-19T01:17:12.095Z,7.60
2022-08-19T01:19:43.790Z,8.52
2022-08-19T01:22:30.136Z,7.70
2022-08-19T01:24:59.788Z,9.50
2022-08-19T01:27:26.799Z,9.63
2022-08-19T01:29:56.675Z,9.40
2022-08-19T01:32:33.928Z,9.48
2022-08-19T01:35:02.920Z,8.75
2022-08-19T01:37:31.299Z,7.97
2022-08-19T01:39:58.592Z,7.88
2022-08-19T01:42:29.920Z,8.60
2022-08-19T01:44:57.866Z,8.23
2022-08-19T01:47:25.133Z,8.95
2022-08-19T01:49:52.043Z,8.88
2022-08-19T01:52:18.879Z,8.63
2022-08-19T01:54:45.648Z,7.77
2022-08-19T01:57:14.459Z,8.40
2022-08-19T01:59:42.529Z,7.82
2022-08-19T02:02:09.381Z,8.13
2022-08-19T02:04:38.963Z,8.07
2022-08-19T02:07:06.620Z,8.10
2022-08-19T02:09:33.804Z,8.50
2022-08-19T02:12:00.682Z,9.27
2022-08-19T02:14:27.422Z,9.60
2022-08-19T02:16:54.144Z,10.05
2022-08-19T02:19:20.877Z,10.30
2022-08-19T02:21:47.653Z,9.43
2022-08-19T02:24:14.809Z,9.30
2022-08-19T02:26:41.545Z,8.20
2022-08-19T02:29:08.583Z,9.55
2022-08-19T02:31:35.386Z,9.50
2022-08-19T02:34:03.355Z,9.65
2022-08-19T02:36:31.190Z,9.65
2022-08-19T02:38:57.973Z,9.68
2022-08-19T02:41:27.849Z,10.50
2022-08-19T02:44:29.068Z,10.23
2022-08-19T02:46:52.440Z,9.43
2022-08-19T02:49:20.629Z,8.90
2022-08-19T02:51:48.108Z,9.13
2022-08-19T02:54:15.565Z,9.65
2022-08-19T02:56:44.282Z,9.00
2022-08-19T02:59:12.043Z,10.18
2022-08-19T03:01:41.425Z,11.10
2022-08-19T03:04:10.810Z,10.10
2022-08-19T03:06:42.820Z,10.50
2022-08-19T03:09:10.142Z,10.80
2022-08-19T03:11:37.966Z,11.30
2022-08-19T03:14:07.045Z,11.73
2022-08-19T03:16:36.300Z,11.15
2022-08-19T03:19:03.633Z,11.40
2022-08-19T03:21:32.975Z,11.67
2022-08-19T03:24:02.938Z,12.57
2022-08-19T03:26:30.663Z,11.80
2022-08-19T03:28:59.052Z,12.55
2022-08-19T03:31:42.006Z,12.20
2022-08-19T03:34:20.509Z,11.50
2022-08-19T03:36:48.038Z,11.95
2022-08-19T03:39:15.490Z,12.15
2022-08-19T03:41:48.324Z,11.82
2022-08-19T03:44:19.381Z,12.77
2022-08-19T03:46:56.302Z,12.20
2022-08-19T03:49:27.110Z,12.95
2022-08-19T03:51:57.532Z,13.93
2022-08-19T03:54:25.925Z,13.52
2022-08-19T03:56:54.949Z,13.77
2022-08-19T03:59:28.504Z,12.80
2022-08-19T04:02:00.981Z,12.30
2022-08-19T04:04:29.001Z,12.82
2022-08-19T04:06:57.124Z,12.82
2022-08-19T04:09:24.053Z,12.80
2022-08-19T04:11:55.334Z,14.27
2022-08-19T04:14:31.355Z,14.13
2022-08-19T04:17:00.066Z,15.85
2022-08-19T04:19:27.848Z,16.75
2022-08-19T04:21:55.481Z,17.50
2022-08-19T04:24:23.602Z,18.17
2022-08-19T04:26:51.038Z,17.33
2022-08-19T04:29:23.157Z,16.63
2022-08-19T04:31:50.659Z,16.83
2022-08-19T04:34:23.264Z,16.80
2022-08-19T04:36:52.050Z,16.50
2022-08-19T04:39:22.110Z,15.95
2022-08-19T04:42:07.352Z,16.20
2022-08-19T04:44:39.880Z,15.70
2022-08-19T04:47:13.244Z,14.63
2022-08-19T04:49:39.941Z,14.77
2022-08-19T04:52:06.749Z,15.75
2022-08-19T04:54:38.891Z,16.30
2022-08-19T04:57:11.134Z,16.83
2022-08-19T04:59:40.179Z,15.15
2022-08-19T05:02:09.402Z,16.50
2022-08-19T05:04:39.917Z,17.02
2022-08-19T05:07:08.724Z,17.17
2022-08-19T05:09:57.013Z,18.67
2022-08-19T05:12:22.497Z,17.40
2022-08-19T05:14:57.703Z,19.37
2022-08-19T05:17:28.768Z,18.65
2022-08-19T05:20:16.486Z,19.15
2022-08-19T05:22:45.202Z,19.10
2022-08-19T05:25:19.312Z,19.00
2022-08-19T05:27:46.612Z,17.57
2022-08-19T05:30:14.056Z,18.23
2022-08-19T05:32:43.728Z,18.20
2022-08-19T05:35:10.833Z,18.33
2022-08-19T05:37:37.680Z,18.50
2022-08-19T05:40:05.618Z,16.87
2022-08-19T05:42:57.806Z,18.67
2022-08-19T05:45:27.391Z,18.15
2022-08-19T05:47:55.123Z,18.00
2022-08-19T05:50:22.552Z,18.85
2022-08-19T05:52:50.665Z,18.33
2022-08-19T05:55:18.040Z,18.30
2022-08-19T05:57:47.364Z,17.77
2022-08-19T06:00:15.119Z,18.35
2022-08-19T06:02:42.429Z,19.58
2022-08-19T06:05:10.095Z,18.77
2022-08-19T06:07:38.388Z,19.13
2022-08-19T06:10:08.916Z,19.60
2022-08-19T06:12:36.594Z,19.58
2022-08-19T06:15:11.268Z,20.05
2022-08-19T06:17:38.551Z,19.23
2022-08-19T06:20:07.910Z,18.27
2022-08-19T06:22:39.682Z,17.70
2022-08-19T06:25:07.130Z,18.40
2022-08-19T06:27:34.644Z,18.33
2022-08-19T06:30:02.070Z,18.57
2022-08-19T06:32:29.142Z,17.92
2022-08-19T06:34:56.092Z,17.83
2022-08-19T06:37:23.323Z,18.90
2022-08-19T06:39:51.848Z,18.13
2022-08-19T06:42:19.606Z,17.47
2022-08-19T06:44:50.051Z,17.45
2022-08-19T06:47:28.705Z,17.80
2022-08-19T06:50:03.191Z,19.17
2022-08-19T06:52:34.127Z,17.80
2022-08-19T06:55:06.166Z,18.67
2022-08-19T06:57:34.239Z,18.40
2022-08-19T07:00:01.244Z,17.35
2022-08-19T07:02:28.222Z,18.38
2022-08-19T07:04:55.146Z,17.88
2022-08-19T07:07:28.152Z,17.63
2022-08-19T07:09:58.356Z,18.33
2022-08-19T07:12:30.821Z,17.50
2022-08-19T07:14:58.713Z,17.38
2022-08-19T07:17:26.092Z,17.73
2022-08-19T07:19:54.414Z,16.80
2022-08-19T07:22:24.342Z,16.35
2022-08-19T07:24:52.529Z,17.23
2022-08-19T07:27:24.411Z,17.02
2022-08-19T07:29:57.406Z,16.25
2022-08-19T07:32:27.743Z,15.83
2022-08-19T07:34:56.533Z,15.73
2022-08-19T07:37:27.318Z,16.00
2022-08-19T07:40:09.090Z,15.88
2022-08-19T07:42:35.972Z,15.23
2022-08-19T07:45:03.770Z,15.47
2022-08-19T07:47:50.287Z,15.68
2022-08-19T07:50:20.580Z,15.13
2022-08-19T07:52:49.159Z,15.30
2022-08-19T07:55:42.172Z,14.80
2022-08-19T07:58:11.836Z,15.40
2022-08-19T08:00:39.278Z,14.13
2022-08-19T08:03:06.126Z,14.85
2022-08-19T08:05:51.637Z,14.48
2022-08-19T08:08:36.889Z,13.95
2022-08-19T08:11:07.770Z,14.20
2022-08-19T08:13:36.223Z,14.38
2022-08-19T08:16:03.858Z,14.95
2022-08-19T08:18:30.792Z,14.73
2022-08-19T08:20:58.505Z,14.73
2022-08-19T08:23:27.470Z,14.30
2022-08-19T08:25:58.057Z,14.65
2022-08-19T08:28:26.272Z,14.98
2022-08-19T08:30:57.585Z,13.93
2022-08-19T08:33:30.116Z,13.73
2022-08-19T08:36:00.193Z,13.87
2022-08-19T08:38:26.982Z,14.85
2022-08-19T08:41:07.938Z,14.30
2022-08-19T08:43:38.770Z,14.68
2022-08-19T08:46:30.569Z,14.73
2022-08-19T08:49:05.293Z,12.23
2022-08-19T08:54:13.928Z,11.55
2022-08-19T08:56:44.066Z,12.77
2022-08-19T08:59:20.207Z,12.00
2022-08-19T09:01:47.094Z,12.20
2022-08-19T09:04:14.357Z,11.65
2022-08-19T09:07:18.418Z,13.02
2022-08-19T09:10:11.012Z,14.10
2022-08-19T09:12:52.485Z,13.93
2022-08-19T09:15:36.813Z,13.97
2022-08-19T09:18:04.641Z,14.25
2022-08-19T09:20:34.167Z,14.05
2022-08-19T09:23:01.209Z,14.40
2022-08-19T09:25:29.559Z,13.55
2022-08-19T09:28:05.718Z,13.43
2022-08-19T09:30:47.329Z,12.85
2022-08-19T09:33:14.023Z,13.82
2022-08-19T09:35:49.441Z,13.45
2022-08-19T09:38:57.443Z,14.18
2022-08-19T09:41:26.936Z,11.20
2022-08-19T09:43:57.203Z,11.13
2022-08-19T09:46:29.491Z,12.27
2022-08-19T09:49:02.971Z,13.07
2022-08-19T09:51:33.612Z,13.10
2022-08-19T09:54:04.789Z,13.77
2022-08-19T09:56:32.283Z,13.93
2022-08-19T09:59:00.577Z,13.90
2022-08-19T10:01:29.652Z,13.98
2022-08-19T10:03:58.929Z,13.30
2022-08-19T10:06:46.518Z,12.93
2022-08-19T10:09:15.569Z,12.48
2022-08-19T10:11:52.203Z,13.13
2022-08-19T10:14:23.467Z,12.00
2022-08-19T10:17:26.786Z,13.07
2022-08-19T10:19:58.318Z,12.23
2022-08-19T10:22:25.940Z,12.80
2022-08-19T10:24:53.764Z,12.13
2022-08-19T10:27:20.526Z,11.98
2022-08-19T10:29:48.907Z,12.30
2022-08-19T10:32:15.820Z,11.33
2022-08-19T10:34:47.899Z,10.90
2022-08-19T10:37:23.671Z,11.55
2022-08-19T10:39:51.486Z,11.15
2022-08-19T10:42:19.516Z,10.77
2022-08-19T10:44:47.839Z,10.70
2022-08-19T10:47:17.289Z,10.45
2022-08-19T10:50:11.698Z,10.32
2022-08-19T10:52:49.848Z,9.77
2022-08-19T10:55:41.957Z,9.32
2022-08-19T10:58:14.040Z,9.30
2022-08-19T11:00:41.536Z,8.90
2022-08-19T11:03:09.485Z,8.23
2022-08-19T11:05:39.944Z,7.93
2022-08-19T11:08:23.303Z,7.88
2022-08-19T11:11:00.115Z,7.67
2022-08-19T11:13:27.621Z,7.38
2022-08-19T11:16:09.920Z,7.50
2022-08-19T11:18:38.965Z,7.00
2022-08-19T11:21:15.716Z,6.93
2022-08-19T11:23:42.819Z,6.97
2022-08-19T11:26:09.832Z,6.82
2022-08-19T11:28:36.938Z,6.63
2022-08-19T11:31:04.546Z,6.75
2022-08-19T11:33:32.521Z,6.38
2022-08-19T11:36:00.873Z,6.13
2022-08-19T11:38:28.255Z,6.25
2022-08-19T11:40:59.950Z,6.20
2022-08-19T11:43:27.815Z,6.85
2022-08-19T11:45:56.271Z,6.25
2022-08-19T11:48:23.413Z,5.60
2022-08-19T11:50:51.498Z,5.70
2022-08-19T11:53:21.098Z,4.90
2022-08-19T11:55:56.766Z,5.32
2022-08-19T11:58:24.083Z,5.07
2022-08-19T12:00:53.237Z,5.47
2022-08-19T12:03:20.505Z,4.93
2022-08-19T12:05:47.373Z,4.57
2022-08-19T12:08:14.881Z,4.32
2022-08-19T12:10:43.227Z,4.15
2022-08-19T12:13:11.093Z,3.57
2022-08-19T12:15:41.422Z,3.00
2022-08-19T12:18:10.049Z,3.35
2022-08-19T12:20:40.401Z,3.10
2022-08-19T12:23:10.386Z,3.60
2022-08-19T12:25:50.785Z,3.30
2022-08-19T12:28:21.961Z,3.00
2022-08-19T12:30:51.044Z,3.63
2022-08-19T12:33:19.210Z,3.22
2022-08-19T12:35:47.745Z,3.28
2022-08-19T12:38:15.730Z,2.90
2022-08-19T12:40:45.900Z,3.05
2022-08-19T12:43:12.639Z,2.90
2022-08-19T12:45:39.363Z,2.65
2022-08-19T12:48:33.544Z,2.50
2022-08-19T12:50:55.190Z,2.80
2022-08-19T12:53:22.077Z,2.20
2022-08-19T12:55:48.801Z,2.50
2022-08-19T12:58:15.505Z,2.60
2022-08-19T13:00:42.649Z,2.30
2022-08-19T13:03:09.381Z,2.40
2022-08-19T13:05:36.461Z,2.10
2022-08-19T13:08:03.567Z,2.75
2022-08-19T13:10:35.711Z,3.47
2022-08-19T13:13:09.625Z,3.30
2022-08-19T13:15:41.038Z,3.50
2022-08-19T13:18:09.922Z,3.30
2022-08-19T13:20:38.202Z,3.45
2022-08-19T13:23:05.366Z,3.30
2022-08-19T13:25:32.210Z,3.80
2022-08-19T13:28:00.194Z,3.30
2022-08-19T13:30:46.843Z,3.63
2022-08-19T13:33:16.536Z,3.88
2022-08-19T13:35:57.905Z,3.72
2022-08-19T13:38:25.346Z,4.57
2022-08-19T13:40:54.230Z,4.50
2022-08-19T13:43:23.795Z,3.90
2022-08-19T13:45:57.484Z,3.83
2022-08-19T13:48:27.337Z,3.58
2022-08-19T13:50:54.991Z,3.83
2022-08-19T13:53:22.169Z,3.47
2022-08-19T13:55:49.679Z,3.00
2022-08-19T13:58:16.437Z,2.67
2022-08-19T14:00:46.790Z,2.30
2022-08-19T14:03:13.908Z,2.10
2022-08-19T14:05:40.738Z,1.73
2022-08-19T14:08:07.698Z,2.05
2022-08-19T14:10:34.918Z,2.80
2022-08-19T14:13:03.951Z,3.45
2022-08-19T14:15:31.497Z,3.45
2022-08-19T14:17:58.638Z,3.60
2022-08-19T14:20:26.439Z,4.03
2022-08-19T14:22:54.829Z,4.30
2022-08-19T14:25:29.176Z,4.63
2022-08-19T14:27:56.992Z,4.63
2022-08-19T14:30:29.143Z,4.40
2022-08-19T14:33:00.049Z,4.30
2022-08-19T14:35:28.236Z,4.15
2022-08-19T14:37:55.991Z,3.95
2022-08-19T14:40:28.089Z,3.80
2022-08-19T14:42:59.984Z,3.80
2022-08-19T14:45:31.668Z,4.07
2022-08-19T14:48:00.968Z,4.10
2022-08-19T14:50:28.816Z,4.80
2022-08-19T14:53:00.904Z,4.03
2022-08-19T14:55:27.746Z,3.97
2022-08-19T14:57:54.969Z,4.32
2022-08-19T15:00:24.827Z,4.60
2022-08-19T15:02:51.749Z,4.18
2022-08-19T15:05:22.593Z,3.70
2022-08-19T15:07:49.292Z,3.63
2022-08-19T15:10:16.672Z,4.50
2022-08-19T15:12:47.568Z,4.20
2022-08-19T15:15:18.466Z,4.32
2022-08-19T15:17:47.331Z,4.10
2022-08-19T15:20:19.211Z,3.80
2022-08-19T15:22:46.193Z,3.63
2022-08-19T15:25:16.080Z,3.53
2022-08-19T15:27:44.150Z,3.90
2022-08-19T15:30:12.691Z,3.10
2022-08-19T15:32:39.670Z,2.90
2022-08-19T15:35:08.009Z,2.83
2022-08-19T15:37:37.337Z,3.17
2022-08-19T15:40:09.488Z,3.00
2022-08-19T15:42:38.466Z,2.40
2022-08-19T15:45:06.803Z,2.20
2022-08-19T15:47:34.875Z,2.33
2022-08-19T15:50:10.457Z,3.70
2022-08-19T15:52:48.381Z,4.13
2022-08-19T15:55:27.684Z,3.92
2022-08-19T15:58:27.899Z,3.50
2022-08-19T16:01:26.816Z,3.35
2022-08-19T16:04:24.731Z,3.90
2022-08-19T16:06:55.101Z,3.45
2022-08-19T16:09:27.487Z,3.88
2022-08-19T16:11:59.596Z,4.00
2022-08-19T16:14:29.834Z,4.28
2022-08-19T16:16:56.929Z,3.83
2022-08-19T16:19:24.882Z,4.13
2022-08-19T16:21:53.885Z,4.68
2022-08-19T16:24:23.221Z,4.40
2022-08-19T16:26:50.682Z,3.42
2022-08-19T16:29:27.796Z,3.50
2022-08-19T16:32:03.241Z,3.30
2022-08-19T16:34:30.624Z,2.42
2022-08-19T16:36:57.654Z,1.60
2022-08-19T16:39:24.687Z,1.10
2022-08-19T16:41:51.602Z,1.20
2022-08-19T16:44:21.011Z,1.25
2022-08-19T16:46:58.745Z,1.20
2022-08-19T16:49:53.437Z,1.20
2022-08-19T16:52:18.181Z,1.45
2022-08-19T16:54:45.046Z,1.40
2022-08-19T16:57:12.558Z,0.95
2022-08-19T16:59:43.852Z,0.90
2022-08-19T17:02:17.245Z,1.00
2022-08-19T17:04:44.020Z,0.85
2022-08-19T17:07:10.975Z,0.98
2022-08-19T17:09:38.422Z,1.00
2022-08-19T17:12:05.711Z,1.20
2022-08-19T17:14:32.399Z,1.23
2022-08-19T17:16:59.262Z,0.98
2022-08-19T17:19:25.988Z,1.17
2022-08-19T17:21:52.902Z,0.90
2022-08-19T17:24:19.758Z,1.00
2022-08-19T17:26:46.756Z,0.80
2022-08-19T17:29:14.134Z,0.98
2022-08-19T17:31:40.849Z,1.00
2022-08-19T17:34:08.738Z,0.90
2022-08-19T17:36:36.120Z,0.90
2022-08-19T17:39:04.970Z,0.77
2022-08-19T17:41:34.161Z,1.10
2022-08-19T17:44:02.385Z,1.20
2022-08-19T17:46:30.125Z,1.38
2022-08-19T17:48:57.710Z,1.27
2022-08-19T17:51:27.298Z,1.10
2022-08-19T17:53:54.948Z,1.48
2022-08-19T17:56:22.147Z,1.15
2022-08-19T17:58:57.893Z,1.30
2022-08-19T18:01:32.029Z,1.20
2022-08-19T18:04:17.251Z,1.20
2022-08-19T18:06:46.131Z,1.30
2022-08-19T18:09:20.606Z,1.20
2022-08-19T18:11:52.357Z,1.30
2022-08-19T18:14:20.649Z,1.42
2022-08-19T18:16:47.885Z,2.33
2022-08-19T18:19:14.604Z,1.63
2022-08-19T18:21:41.360Z,1.90
2022-08-19T18:24:08.129Z,2.40
2022-08-19T18:26:35.145Z,2.20
2022-08-19T18:29:02.083Z,2.73
2022-08-19T18:31:30.017Z,2.70
2022-08-19T18:33:57.052Z,3.22
2022-08-19T18:36:52.090Z,3.40
2022-08-19T18:39:29.568Z,2.60
2022-08-19T18:42:15.422Z,2.70
2022-08-19T18:45:00.678Z,3.00
2022-08-19T18:47:45.992Z,2.60
2022-08-19T18:50:13.883Z,2.90
2022-08-19T18:52:41.058Z,3.28
2022-08-19T18:55:08.830Z,3.53
2022-08-19T18:57:35.750Z,3.55
2022-08-19T19:00:04.701Z,3.92
2022-08-19T19:02:38.916Z,4.28
2022-08-19T19:05:07.659Z,4.38
2022-08-19T19:07:35.231Z,4.43
2022-08-19T19:10:02.396Z,4.57
2022-08-19T19:12:29.810Z,4.85
2022-08-19T19:14:58.565Z,4.80
2022-08-19T19:17:28.221Z,5.22
2022-08-19T19:19:55.053Z,4.63
2022-08-19T19:22:23.526Z,4.32
2022-08-19T19:24:51.311Z,4.78
2022-08-19T19:27:20.353Z,4.47
2022-08-19T19:29:52.049Z,4.95
2022-08-19T19:32:26.903Z,4.53
2022-08-19T19:34:53.813Z,4.63
2022-08-19T19:37:21.063Z,4.53
2022-08-19T19:39:48.374Z,4.80
2022-08-19T19:42:21.725Z,4.80
2022-08-19T19:44:51.328Z,4.17
2022-08-19T19:47:19.287Z,4.55
2022-08-19T19:52:38.449Z,4.75
2022-08-19T19:55:05.852Z,5.18
2022-08-19T19:57:32.926Z,4.60
2022-08-19T20:00:00.661Z,4.75
2022-08-19T20:02:27.489Z,4.93
2022-08-19T20:04:56.218Z,5.18
2022-08-19T20:07:43.077Z,5.20
2022-08-19T20:10:09.817Z,5.20
2022-08-19T20:12:36.587Z,5.20
2022-08-19T20:15:04.793Z,5.43
2022-08-19T20:17:32.474Z,5.57
2022-08-19T20:19:59.269Z,5.43
2022-08-19T20:22:26.014Z,5.60
2022-08-19T20:24:55.489Z,5.70
2022-08-19T20:27:23.594Z,5.72
2022-08-19T20:29:54.866Z,4.80
2022-08-19T20:32:21.620Z,5.93
2022-08-19T20:34:49.791Z,5.77
2022-08-19T20:37:16.687Z,5.05
2022-08-19T20:39:43.504Z,5.35
2022-08-19T20:42:10.293Z,5.13
2022-08-19T20:44:37.895Z,5.50
2022-08-19T20:47:04.988Z,5.17
2022-08-19T20:49:32.225Z,5.05
2022-08-19T20:51:59.056Z,5.55
2022-08-19T20:54:26.955Z,5.63
2022-08-19T20:56:54.431Z,5.15
2022-08-19T20:59:22.085Z,4.70
2022-08-19T21:01:51.933Z,5.03
2022-08-19T21:04:21.231Z,4.60
2022-08-19T21:06:49.192Z,4.90
2022-08-19T21:09:17.361Z,5.03
2022-08-19T21:11:44.187Z,4.97
2022-08-19T21:14:10.877Z,5.20
2022-08-19T21:16:37.589Z,5.22
2022-08-19T21:19:04.873Z,5.32
2022-08-19T21:21:33.027Z,5.70
2022-08-19T21:23:59.889Z,5.60
2022-08-19T21:26:26.745Z,5.03
2022-08-19T21:28:53.778Z,5.57
2022-08-19T21:31:21.059Z,5.47
2022-08-19T21:33:47.893Z,5.47
2022-08-19T21:36:14.713Z,5.37
2022-08-19T21:38:41.419Z,5.15
2022-08-19T21:41:08.371Z,4.82
2022-08-19T21:43:37.451Z,4.40
2022-08-19T21:46:04.746Z,5.13
2022-08-19T21:48:31.777Z,5.20
2022-08-19T21:50:59.999Z,5.30
2022-08-19T21:53:34.275Z,5.30
2022-08-19T21:56:02.612Z,4.72
2022-08-19T21:58:30.561Z,5.05
2022-08-19T22:01:01.639Z,4.73
2022-08-19T22:03:29.027Z,4.65
2022-08-19T22:05:55.871Z,5.10
2022-08-19T22:08:22.613Z,4.93
2022-08-19T22:10:49.706Z,4.97
2022-08-19T22:13:18.168Z,5.00
2022-08-19T22:15:48.488Z,4.60
2022-08-19T22:18:19.028Z,4.97
2022-08-19T22:20:46.293Z,4.93
2022-08-19T22:23:13.287Z,5.05
2022-08-19T22:25:44.223Z,4.70
2022-08-19T22:28:13.992Z,4.78
2022-08-19T22:30:43.983Z,5.53
2022-08-19T22:33:14.317Z,5.50
2022-08-19T22:35:42.563Z,5.13
2022-08-19T22:38:11.880Z,5.13
2022-08-19T22:40:47.277Z,5.30
2022-08-19T22:43:21.954Z,5.22
2022-08-19T22:45:50.843Z,5.00
2022-08-19T22:48:19.997Z,5.10
2022-08-19T22:51:08.129Z,4.53
2022-08-19T22:53:37.177Z,4.63
2022-08-19T22:56:11.929Z,4.60
2022-08-19T22:58:42.250Z,4.57
2022-08-19T23:01:09.063Z,4.57
2022-08-19T23:03:35.816Z,4.50
2022-08-19T23:06:03.251Z,4.00
2022-08-19T23:08:30.362Z,4.03
2022-08-19T23:10:57.289Z,4.43
2022-08-19T23:13:24.701Z,4.25
2022-08-19T23:15:51.584Z,4.40
2022-08-19T23:18:20.222Z,4.32
2022-08-19T23:20:47.086Z,4.15
2022-08-19T23:23:19.925Z,4.28
2022-08-19T23:25:48.937Z,4.18
2022-08-19T23:28:34.156Z,4.70
2022-08-19T23:31:01.797Z,4.40
2022-08-19T23:33:38.158Z,4.90
2022-08-19T23:36:18.467Z,4.75
2022-08-19T23:38:48.039Z,4.85
2022-08-19T23:41:16.849Z,4.90
2022-08-19T23:43:44.560Z,5.13
2022-08-19T23:46:13.856Z,5.43
2022-08-19T23:48:54.616Z,6.00
2022-08-19T23:51:21.349Z,6.38
2022-08-19T23:53:48.077Z,6.10
2022-08-19T23:56:14.799Z,6.00
2022-08-19T23:58:41.701Z,5.80
